sensor_id;sensor_type;location;lat;lon;timestamp;P1;durP1;ratioP1;P2;durP2;ratioP2
75680;SDS011;64294;49.176;16.626;2023-05-09T00:02:00;10.82;;;4.32;;
75680;SDS011;64294;49.176;16.626;2023-05-09T00:04:26;8.88;;;4.20;;
75680;SDS011;64294;49.176;16.626;2023-05-09T00:06:52;7.55;;;4.53;;
75680;SDS011;64294;49.176;16.626;2023-05-09T00:09:17;9.10;;;4.10;;
75680;SDS011;64294;49.176;16.626;2023-05-09T00:11:43;7.55;;;4.35;;
75680;SDS011;64294;49.176;16.626;2023-05-09T00:14:09;8.15;;;4.45;;
75680;SDS011;64294;49.176;16.626;2023-05-09T00:16:36;7.07;;;4.00;;
75680;SDS011;64294;49.176;16.626;2023-05-09T00:19:02;9.80;;;4.40;;
75680;SDS011;64294;49.176;16.626;2023-05-09T00:21:28;8.45;;;4.30;;
75680;SDS011;64294;49.176;16.626;2023-05-09T00:23:54;8.30;;;4.25;;
75680;SDS011;64294;49.176;16.626;2023-05-09T00:26:20;9.15;;;4.25;;
75680;SDS011;64294;49.176;16.626;2023-05-09T00:28:46;9.77;;;4.22;;
75680;SDS011;64294;49.176;16.626;2023-05-09T00:31:12;9.70;;;4.20;;
75680;SDS011;64294;49.176;16.626;2023-05-09T00:33:37;8.32;;;4.60;;
75680;SDS011;64294;49.176;16.626;2023-05-09T00:36:03;8.18;;;4.30;;
75680;SDS011;64294;49.176;16.626;2023-05-09T00:38:28;7.07;;;4.05;;
75680;SDS011;64294;49.176;16.626;2023-05-09T00:40:54;9.35;;;4.43;;
75680;SDS011;64294;49.176;16.626;2023-05-09T00:43:19;7.30;;;4.07;;
75680;SDS011;64294;49.176;16.626;2023-05-09T00:45:45;8.75;;;4.50;;
75680;SDS011;64294;49.176;16.626;2023-05-09T00:48:13;7.93;;;4.25;;
75680;SDS011;64294;49.176;16.626;2023-05-09T00:50:39;7.45;;;4.32;;
75680;SDS011;64294;49.176;16.626;2023-05-09T00:53:05;9.48;;;4.60;;
75680;SDS011;64294;49.176;16.626;2023-05-09T00:55:31;6.70;;;4.15;;
75680;SDS011;64294;49.176;16.626;2023-05-09T00:57:57;10.15;;;5.90;;
75680;SDS011;64294;49.176;16.626;2023-05-09T01:00:23;9.05;;;5.28;;
75680;SDS011;64294;49.176;16.626;2023-05-09T01:02:49;9.90;;;5.72;;
75680;SDS011;64294;49.176;16.626;2023-05-09T01:05:17;10.75;;;5.85;;
75680;SDS011;64294;49.176;16.626;2023-05-09T01:07:49;14.20;;;6.43;;
75680;SDS011;64294;49.176;16.626;2023-05-09T01:10:38;10.82;;;7.15;;
75680;SDS011;64294;49.176;16.626;2023-05-09T01:16:48;11.98;;;5.90;;
75680;SDS011;64294;49.176;16.626;2023-05-09T01:19:01;14.10;;;7.13;;
75680;SDS011;64294;49.176;16.626;2023-05-09T01:21:39;14.13;;;7.32;;
75680;SDS011;64294;49.176;16.626;2023-05-09T01:26:59;12.50;;;6.53;;
75680;SDS011;64294;49.176;16.626;2023-05-09T01:32:13;13.80;;;7.45;;
75680;SDS011;64294;49.176;16.626;2023-05-09T01:34:43;10.43;;;6.75;;
75680;SDS011;64294;49.176;16.626;2023-05-09T01:37:10;11.40;;;6.53;;
75680;SDS011;64294;49.176;16.626;2023-05-09T01:39:38;13.07;;;6.15;;
75680;SDS011;64294;49.176;16.626;2023-05-09T01:42:06;15.68;;;6.70;;
75680;SDS011;64294;49.176;16.626;2023-05-09T01:44:37;12.15;;;7.43;;
75680;SDS011;64294;49.176;16.626;2023-05-09T01:47:05;13.65;;;7.72;;
75680;SDS011;64294;49.176;16.626;2023-05-09T01:49:32;13.57;;;7.25;;
75680;SDS011;64294;49.176;16.626;2023-05-09T01:52:00;11.57;;;6.90;;
75680;SDS011;64294;49.176;16.626;2023-05-09T01:54:29;13.38;;;7.20;;
75680;SDS011;64294;49.176;16.626;2023-05-09T01:56:55;11.57;;;6.50;;
75680;SDS011;64294;49.176;16.626;2023-05-09T01:59:21;10.45;;;5.93;;
75680;SDS011;64294;49.176;16.626;2023-05-09T02:01:48;11.00;;;6.35;;
75680;SDS011;64294;49.176;16.626;2023-05-09T02:04:14;11.35;;;6.28;;
75680;SDS011;64294;49.176;16.626;2023-05-09T02:06:41;10.30;;;5.97;;
75680;SDS011;64294;49.176;16.626;2023-05-09T02:09:08;11.57;;;6.38;;
75680;SDS011;64294;49.176;16.626;2023-05-09T02:11:35;11.43;;;6.00;;
75680;SDS011;64294;49.176;16.626;2023-05-09T02:14:01;14.05;;;6.07;;
75680;SDS011;64294;49.176;16.626;2023-05-09T02:16:26;15.13;;;7.65;;
75680;SDS011;64294;49.176;16.626;2023-05-09T02:18:52;14.13;;;6.97;;
75680;SDS011;64294;49.176;16.626;2023-05-09T02:21:17;11.95;;;7.18;;
75680;SDS011;64294;49.176;16.626;2023-05-09T02:23:43;11.85;;;6.70;;
75680;SDS011;64294;49.176;16.626;2023-05-09T02:26:08;11.18;;;6.03;;
75680;SDS011;64294;49.176;16.626;2023-05-09T02:28:35;13.60;;;6.60;;
75680;SDS011;64294;49.176;16.626;2023-05-09T02:31:01;10.65;;;6.03;;
75680;SDS011;64294;49.176;16.626;2023-05-09T02:33:33;11.85;;;6.45;;
75680;SDS011;64294;49.176;16.626;2023-05-09T02:36:00;12.80;;;6.60;;
75680;SDS011;64294;49.176;16.626;2023-05-09T02:38:26;10.43;;;6.28;;
75680;SDS011;64294;49.176;16.626;2023-05-09T02:40:52;10.38;;;6.57;;
75680;SDS011;64294;49.176;16.626;2023-05-09T02:43:17;10.88;;;6.53;;
75680;SDS011;64294;49.176;16.626;2023-05-09T02:45:43;13.15;;;6.70;;
75680;SDS011;64294;49.176;16.626;2023-05-09T02:48:08;12.43;;;6.95;;
75680;SDS011;64294;49.176;16.626;2023-05-09T02:50:34;12.98;;;7.20;;
75680;SDS011;64294;49.176;16.626;2023-05-09T02:53:02;12.82;;;6.63;;
75680;SDS011;64294;49.176;16.626;2023-05-09T02:55:27;12.20;;;7.10;;
75680;SDS011;64294;49.176;16.626;2023-05-09T02:57:53;13.77;;;6.45;;
75680;SDS011;64294;49.176;16.626;2023-05-09T03:00:18;11.65;;;6.97;;
75680;SDS011;64294;49.176;16.626;2023-05-09T03:02:45;14.02;;;7.00;;
75680;SDS011;64294;49.176;16.626;2023-05-09T03:05:11;12.70;;;6.68;;
75680;SDS011;64294;49.176;16.626;2023-05-09T03:07:36;14.88;;;7.22;;
75680;SDS011;64294;49.176;16.626;2023-05-09T03:10:02;13.43;;;7.05;;
75680;SDS011;64294;49.176;16.626;2023-05-09T03:12:28;12.82;;;6.95;;
75680;SDS011;64294;49.176;16.626;2023-05-09T03:14:53;13.93;;;6.18;;
75680;SDS011;64294;49.176;16.626;2023-05-09T03:17:18;15.05;;;6.88;;
75680;SDS011;64294;49.176;16.626;2023-05-09T03:19:46;16.30;;;7.15;;
75680;SDS011;64294;49.176;16.626;2023-05-09T03:22:12;15.93;;;6.90;;
75680;SDS011;64294;49.176;16.626;2023-05-09T03:24:38;12.45;;;7.10;;
75680;SDS011;64294;49.176;16.626;2023-05-09T03:27:03;11.15;;;6.53;;
75680;SDS011;64294;49.176;16.626;2023-05-09T03:29:28;14.48;;;7.30;;
75680;SDS011;64294;49.176;16.626;2023-05-09T03:31:54;12.93;;;6.60;;
75680;SDS011;64294;49.176;16.626;2023-05-09T03:34:19;11.48;;;6.13;;
75680;SDS011;64294;49.176;16.626;2023-05-09T03:36:45;11.23;;;6.70;;
75680;SDS011;64294;49.176;16.626;2023-05-09T03:39:10;14.57;;;7.35;;
75680;SDS011;64294;49.176;16.626;2023-05-09T03:41:36;13.73;;;7.03;;
75680;SDS011;64294;49.176;16.626;2023-05-09T03:44:02;13.57;;;6.85;;
75680;SDS011;64294;49.176;16.626;2023-05-09T03:46:27;13.73;;;7.13;;
75680;SDS011;64294;49.176;16.626;2023-05-09T03:48:53;15.07;;;7.07;;
75680;SDS011;64294;49.176;16.626;2023-05-09T03:51:18;14.38;;;7.03;;
75680;SDS011;64294;49.176;16.626;2023-05-09T03:53:45;11.93;;;6.82;;
75680;SDS011;64294;49.176;16.626;2023-05-09T03:56:11;13.55;;;6.70;;
75680;SDS011;64294;49.176;16.626;2023-05-09T03:58:36;12.02;;;6.20;;
75680;SDS011;64294;49.176;16.626;2023-05-09T04:01:02;13.40;;;7.28;;
75680;SDS011;64294;49.176;16.626;2023-05-09T04:03:27;16.33;;;7.47;;
75680;SDS011;64294;49.176;16.626;2023-05-09T04:05:53;13.63;;;7.60;;
75680;SDS011;64294;49.176;16.626;2023-05-09T04:08:19;14.65;;;7.75;;
75680;SDS011;64294;49.176;16.626;2023-05-09T04:10:44;16.92;;;7.72;;
75680;SDS011;64294;49.176;16.626;2023-05-09T04:13:10;17.05;;;8.00;;
75680;SDS011;64294;49.176;16.626;2023-05-09T04:15:35;14.05;;;7.80;;
75680;SDS011;64294;49.176;16.626;2023-05-09T04:18:01;17.48;;;7.53;;
75680;SDS011;64294;49.176;16.626;2023-05-09T04:20:26;18.20;;;7.85;;
75680;SDS011;64294;49.176;16.626;2023-05-09T04:22:51;16.02;;;7.65;;
75680;SDS011;64294;49.176;16.626;2023-05-09T04:25:17;15.13;;;7.82;;
75680;SDS011;64294;49.176;16.626;2023-05-09T04:27:44;18.95;;;7.50;;
75680;SDS011;64294;49.176;16.626;2023-05-09T04:30:09;12.27;;;7.75;;
75680;SDS011;64294;49.176;16.626;2023-05-09T04:32:36;15.38;;;7.78;;
75680;SDS011;64294;49.176;16.626;2023-05-09T04:35:02;14.52;;;7.18;;
75680;SDS011;64294;49.176;16.626;2023-05-09T04:37:28;16.42;;;7.28;;
75680;SDS011;64294;49.176;16.626;2023-05-09T04:39:55;14.25;;;7.80;;
75680;SDS011;64294;49.176;16.626;2023-05-09T04:42:21;13.88;;;7.75;;
75680;SDS011;64294;49.176;16.626;2023-05-09T04:44:47;14.15;;;7.40;;
75680;SDS011;64294;49.176;16.626;2023-05-09T04:47:13;12.85;;;7.80;;
75680;SDS011;64294;49.176;16.626;2023-05-09T04:49:38;17.00;;;8.02;;
75680;SDS011;64294;49.176;16.626;2023-05-09T04:52:04;17.35;;;8.38;;
75680;SDS011;64294;49.176;16.626;2023-05-09T04:54:30;14.93;;;7.40;;
75680;SDS011;64294;49.176;16.626;2023-05-09T04:56:56;13.23;;;7.70;;
75680;SDS011;64294;49.176;16.626;2023-05-09T04:59:21;16.02;;;8.07;;
75680;SDS011;64294;49.176;16.626;2023-05-09T05:01:47;13.45;;;8.35;;
75680;SDS011;64294;49.176;16.626;2023-05-09T05:04:12;12.88;;;7.90;;
75680;SDS011;64294;49.176;16.626;2023-05-09T05:06:38;16.40;;;7.60;;
75680;SDS011;64294;49.176;16.626;2023-05-09T05:09:03;13.98;;;8.18;;
75680;SDS011;64294;49.176;16.626;2023-05-09T05:11:29;16.35;;;8.10;;
75680;SDS011;64294;49.176;16.626;2023-05-09T05:13:55;15.15;;;8.75;;
75680;SDS011;64294;49.176;16.626;2023-05-09T05:16:20;15.65;;;8.30;;
75680;SDS011;64294;49.176;16.626;2023-05-09T05:18:45;19.17;;;7.80;;
75680;SDS011;64294;49.176;16.626;2023-05-09T05:21:11;15.23;;;7.70;;
75680;SDS011;64294;49.176;16.626;2023-05-09T05:23:36;15.68;;;8.15;;
75680;SDS011;64294;49.176;16.626;2023-05-09T05:26:01;18.15;;;8.32;;
75680;SDS011;64294;49.176;16.626;2023-05-09T05:28:27;17.27;;;8.18;;
75680;SDS011;64294;49.176;16.626;2023-05-09T05:30:53;14.70;;;7.68;;
75680;SDS011;64294;49.176;16.626;2023-05-09T05:33:18;15.65;;;8.25;;
75680;SDS011;64294;49.176;16.626;2023-05-09T05:35:44;15.77;;;8.23;;
75680;SDS011;64294;49.176;16.626;2023-05-09T05:38:09;17.42;;;8.02;;
75680;SDS011;64294;49.176;16.626;2023-05-09T05:40:34;16.27;;;7.65;;
75680;SDS011;64294;49.176;16.626;2023-05-09T05:43:00;14.20;;;7.65;;
75680;SDS011;64294;49.176;16.626;2023-05-09T05:45:25;15.38;;;7.82;;
75680;SDS011;64294;49.176;16.626;2023-05-09T05:47:51;14.65;;;7.57;;
75680;SDS011;64294;49.176;16.626;2023-05-09T05:50:16;14.68;;;7.38;;
75680;SDS011;64294;49.176;16.626;2023-05-09T05:52:42;15.50;;;8.05;;
75680;SDS011;64294;49.176;16.626;2023-05-09T05:55:07;14.18;;;8.23;;
75680;SDS011;64294;49.176;16.626;2023-05-09T05:57:33;16.73;;;8.60;;
75680;SDS011;64294;49.176;16.626;2023-05-09T05:59:59;15.20;;;7.75;;
75680;SDS011;64294;49.176;16.626;2023-05-09T06:02:25;13.52;;;7.55;;
75680;SDS011;64294;49.176;16.626;2023-05-09T06:04:51;13.27;;;7.15;;
75680;SDS011;64294;49.176;16.626;2023-05-09T06:07:16;12.70;;;7.50;;
75680;SDS011;64294;49.176;16.626;2023-05-09T06:09:41;13.48;;;7.88;;
75680;SDS011;64294;49.176;16.626;2023-05-09T06:12:07;12.40;;;7.55;;
75680;SDS011;64294;49.176;16.626;2023-05-09T06:14:33;12.48;;;7.45;;
75680;SDS011;64294;49.176;16.626;2023-05-09T06:16:58;13.93;;;7.32;;
75680;SDS011;64294;49.176;16.626;2023-05-09T06:19:23;13.30;;;7.05;;
75680;SDS011;64294;49.176;16.626;2023-05-09T06:21:49;11.05;;;5.90;;
75680;SDS011;64294;49.176;16.626;2023-05-09T06:24:15;11.93;;;5.95;;
75680;SDS011;64294;49.176;16.626;2023-05-09T06:26:40;11.30;;;5.95;;
75680;SDS011;64294;49.176;16.626;2023-05-09T06:29:05;10.80;;;5.90;;
75680;SDS011;64294;49.176;16.626;2023-05-09T06:31:31;9.25;;;5.55;;
75680;SDS011;64294;49.176;16.626;2023-05-09T06:33:59;9.65;;;5.45;;
75680;SDS011;64294;49.176;16.626;2023-05-09T06:36:25;9.77;;;5.72;;
75680;SDS011;64294;49.176;16.626;2023-05-09T06:38:50;8.75;;;5.45;;
75680;SDS011;64294;49.176;16.626;2023-05-09T06:41:15;8.48;;;5.47;;
75680;SDS011;64294;49.176;16.626;2023-05-09T06:43:41;12.27;;;5.80;;
75680;SDS011;64294;49.176;16.626;2023-05-09T06:46:06;7.97;;;4.90;;
75680;SDS011;64294;49.176;16.626;2023-05-09T06:48:32;7.13;;;5.00;;
75680;SDS011;64294;49.176;16.626;2023-05-09T06:50:57;9.23;;;5.00;;
75680;SDS011;64294;49.176;16.626;2023-05-09T06:53:22;9.60;;;4.65;;
75680;SDS011;64294;49.176;16.626;2023-05-09T06:55:48;7.90;;;4.65;;
75680;SDS011;64294;49.176;16.626;2023-05-09T06:58:13;8.10;;;4.22;;
75680;SDS011;64294;49.176;16.626;2023-05-09T07:00:39;8.50;;;4.18;;
75680;SDS011;64294;49.176;16.626;2023-05-09T07:03:04;6.20;;;4.18;;
75680;SDS011;64294;49.176;16.626;2023-05-09T07:05:31;6.82;;;3.90;;
75680;SDS011;64294;49.176;16.626;2023-05-09T07:07:57;8.25;;;4.10;;
75680;SDS011;64294;49.176;16.626;2023-05-09T07:10:22;7.97;;;4.30;;
75680;SDS011;64294;49.176;16.626;2023-05-09T07:12:51;7.05;;;3.92;;
75680;SDS011;64294;49.176;16.626;2023-05-09T07:15:17;10.65;;;4.60;;
75680;SDS011;64294;49.176;16.626;2023-05-09T07:17:42;7.70;;;4.20;;
75680;SDS011;64294;49.176;16.626;2023-05-09T07:20:07;7.85;;;4.30;;
75680;SDS011;64294;49.176;16.626;2023-05-09T07:22:33;8.88;;;4.50;;
75680;SDS011;64294;49.176;16.626;2023-05-09T07:24:58;9.43;;;4.35;;
75680;SDS011;64294;49.176;16.626;2023-05-09T07:27:24;9.02;;;4.30;;
75680;SDS011;64294;49.176;16.626;2023-05-09T07:29:49;7.78;;;3.97;;
75680;SDS011;64294;49.176;16.626;2023-05-09T07:32:17;8.18;;;4.47;;
75680;SDS011;64294;49.176;16.626;2023-05-09T07:34:42;7.78;;;4.20;;
75680;SDS011;64294;49.176;16.626;2023-05-09T07:37:08;8.18;;;4.50;;
75680;SDS011;64294;49.176;16.626;2023-05-09T07:39:33;9.27;;;4.40;;
75680;SDS011;64294;49.176;16.626;2023-05-09T07:41:59;8.65;;;4.00;;
75680;SDS011;64294;49.176;16.626;2023-05-09T07:44:24;6.38;;;4.38;;
75680;SDS011;64294;49.176;16.626;2023-05-09T07:46:49;12.57;;;5.10;;
75680;SDS011;64294;49.176;16.626;2023-05-09T07:49:18;13.13;;;5.30;;
75680;SDS011;64294;49.176;16.626;2023-05-09T07:51:43;10.48;;;4.85;;
75680;SDS011;64294;49.176;16.626;2023-05-09T07:54:09;8.77;;;5.07;;
75680;SDS011;64294;49.176;16.626;2023-05-09T07:56:34;9.43;;;5.30;;
75680;SDS011;64294;49.176;16.626;2023-05-09T07:58:59;7.85;;;5.07;;
75680;SDS011;64294;49.176;16.626;2023-05-09T08:01:25;11.85;;;5.60;;
75680;SDS011;64294;49.176;16.626;2023-05-09T08:03:51;12.00;;;5.38;;
75680;SDS011;64294;49.176;16.626;2023-05-09T08:06:16;11.15;;;5.93;;
75680;SDS011;64294;49.176;16.626;2023-05-09T08:08:45;8.10;;;5.38;;
75680;SDS011;64294;49.176;16.626;2023-05-09T08:11:10;7.85;;;5.10;;
75680;SDS011;64294;49.176;16.626;2023-05-09T08:13:35;10.05;;;5.50;;
75680;SDS011;64294;49.176;16.626;2023-05-09T08:16:01;8.68;;;5.15;;
75680;SDS011;64294;49.176;16.626;2023-05-09T08:18:26;10.93;;;5.38;;
75680;SDS011;64294;49.176;16.626;2023-05-09T08:20:52;13.05;;;5.47;;
75680;SDS011;64294;49.176;16.626;2023-05-09T08:23:17;7.97;;;4.80;;
75680;SDS011;64294;49.176;16.626;2023-05-09T08:25:43;6.57;;;4.55;;
75680;SDS011;64294;49.176;16.626;2023-05-09T08:28:08;6.50;;;4.18;;
75680;SDS011;64294;49.176;16.626;2023-05-09T08:30:34;7.35;;;4.40;;
75680;SDS011;64294;49.176;16.626;2023-05-09T08:32:59;8.48;;;3.72;;
75680;SDS011;64294;49.176;16.626;2023-05-09T08:35:25;6.65;;;3.45;;
75680;SDS011;64294;49.176;16.626;2023-05-09T08:37:50;6.97;;;3.38;;
75680;SDS011;64294;49.176;16.626;2023-05-09T08:40:15;12.85;;;3.95;;
75680;SDS011;64294;49.176;16.626;2023-05-09T08:42:41;5.53;;;3.75;;
75680;SDS011;64294;49.176;16.626;2023-05-09T08:45:10;4.97;;;3.70;;
75680;SDS011;64294;49.176;16.626;2023-05-09T08:47:38;6.72;;;3.63;;
75680;SDS011;64294;49.176;16.626;2023-05-09T08:50:04;5.82;;;3.20;;
75680;SDS011;64294;49.176;16.626;2023-05-09T08:52:31;7.00;;;3.85;;
75680;SDS011;64294;49.176;16.626;2023-05-09T08:55:01;7.47;;;3.75;;
75680;SDS011;64294;49.176;16.626;2023-05-09T08:57:29;6.53;;;3.90;;
75680;SDS011;64294;49.176;16.626;2023-05-09T08:59:56;6.38;;;4.00;;
75680;SDS011;64294;49.176;16.626;2023-05-09T09:02:23;16.63;;;3.97;;
75680;SDS011;64294;49.176;16.626;2023-05-09T09:04:48;9.40;;;3.80;;
75680;SDS011;64294;49.176;16.626;2023-05-09T09:07:14;5.53;;;3.90;;
75680;SDS011;64294;49.176;16.626;2023-05-09T09:09:43;7.60;;;3.90;;
75680;SDS011;64294;49.176;16.626;2023-05-09T09:12:10;8.00;;;3.38;;
75680;SDS011;64294;49.176;16.626;2023-05-09T09:14:37;6.32;;;3.72;;
75680;SDS011;64294;49.176;16.626;2023-05-09T09:17:06;10.18;;;3.42;;
75680;SDS011;64294;49.176;16.626;2023-05-09T09:19:33;8.20;;;3.60;;
75680;SDS011;64294;49.176;16.626;2023-05-09T09:22:01;4.85;;;3.30;;
75680;SDS011;64294;49.176;16.626;2023-05-09T09:24:28;7.65;;;3.75;;
75680;SDS011;64294;49.176;16.626;2023-05-09T09:26:55;6.82;;;3.78;;
75680;SDS011;64294;49.176;16.626;2023-05-09T09:29:20;6.97;;;3.95;;
75680;SDS011;64294;49.176;16.626;2023-05-09T09:31:47;5.60;;;3.88;;
75680;SDS011;64294;49.176;16.626;2023-05-09T09:34:21;5.60;;;4.18;;
75680;SDS011;64294;49.176;16.626;2023-05-09T09:36:47;5.57;;;3.80;;
75680;SDS011;64294;49.176;16.626;2023-05-09T09:39:14;7.88;;;4.18;;
75680;SDS011;64294;49.176;16.626;2023-05-09T09:41:39;7.63;;;4.10;;
75680;SDS011;64294;49.176;16.626;2023-05-09T09:44:09;4.85;;;3.58;;
75680;SDS011;64294;49.176;16.626;2023-05-09T09:46:54;7.13;;;3.95;;
75680;SDS011;64294;49.176;16.626;2023-05-09T09:49:24;5.47;;;4.13;;
75680;SDS011;64294;49.176;16.626;2023-05-09T09:54:20;5.40;;;3.90;;
75680;SDS011;64294;49.176;16.626;2023-05-09T09:56:47;7.07;;;3.63;;
75680;SDS011;64294;49.176;16.626;2023-05-09T09:59:19;9.75;;;4.68;;
75680;SDS011;64294;49.176;16.626;2023-05-09T10:01:52;4.93;;;3.55;;
75680;SDS011;64294;49.176;16.626;2023-05-09T10:04:31;4.68;;;3.35;;
75680;SDS011;64294;49.176;16.626;2023-05-09T10:06:59;5.32;;;3.60;;
75680;SDS011;64294;49.176;16.626;2023-05-09T10:09:27;6.10;;;3.97;;
75680;SDS011;64294;49.176;16.626;2023-05-09T10:11:53;5.03;;;3.70;;
75680;SDS011;64294;49.176;16.626;2023-05-09T10:14:21;4.82;;;3.80;;
75680;SDS011;64294;49.176;16.626;2023-05-09T10:16:48;4.95;;;3.88;;
75680;SDS011;64294;49.176;16.626;2023-05-09T10:19:18;4.93;;;3.67;;
75680;SDS011;64294;49.176;16.626;2023-05-09T10:21:48;6.35;;;3.85;;
75680;SDS011;64294;49.176;16.626;2023-05-09T10:24:17;5.40;;;3.63;;
75680;SDS011;64294;49.176;16.626;2023-05-09T10:26:48;8.25;;;4.00;;
75680;SDS011;64294;49.176;16.626;2023-05-09T10:29:17;6.15;;;3.60;;
75680;SDS011;64294;49.176;16.626;2023-05-09T10:31:47;5.95;;;3.95;;
75680;SDS011;64294;49.176;16.626;2023-05-09T10:34:18;6.20;;;3.60;;
75680;SDS011;64294;49.176;16.626;2023-05-09T10:36:45;4.90;;;3.40;;
75680;SDS011;64294;49.176;16.626;2023-05-09T10:39:11;8.35;;;3.85;;
75680;SDS011;64294;49.176;16.626;2023-05-09T10:41:37;5.97;;;3.83;;
75680;SDS011;64294;49.176;16.626;2023-05-09T10:44:03;5.32;;;3.63;;
75680;SDS011;64294;49.176;16.626;2023-05-09T10:46:30;6.00;;;3.92;;
75680;SDS011;64294;49.176;16.626;2023-05-09T10:48:55;5.03;;;3.78;;
75680;SDS011;64294;49.176;16.626;2023-05-09T10:51:21;5.18;;;3.90;;
75680;SDS011;64294;49.176;16.626;2023-05-09T10:53:49;5.72;;;3.88;;
75680;SDS011;64294;49.176;16.626;2023-05-09T10:56:25;5.05;;;3.78;;
75680;SDS011;64294;49.176;16.626;2023-05-09T10:58:53;6.72;;;3.88;;
75680;SDS011;64294;49.176;16.626;2023-05-09T11:01:32;9.15;;;3.63;;
75680;SDS011;64294;49.176;16.626;2023-05-09T11:17:08;4.57;;;2.85;;
75680;SDS011;64294;49.176;16.626;2023-05-09T11:19:36;13.55;;;3.83;;
75680;SDS011;64294;49.176;16.626;2023-05-09T11:25:00;7.80;;;3.53;;
75680;SDS011;64294;49.176;16.626;2023-05-09T11:27:36;4.90;;;2.83;;
75680;SDS011;64294;49.176;16.626;2023-05-09T11:30:03;5.57;;;3.08;;
75680;SDS011;64294;49.176;16.626;2023-05-09T11:32:30;3.92;;;2.90;;
75680;SDS011;64294;49.176;16.626;2023-05-09T11:35:05;4.85;;;3.20;;
75680;SDS011;64294;49.176;16.626;2023-05-09T11:39:58;13.13;;;4.07;;
75680;SDS011;64294;49.176;16.626;2023-05-09T11:42:28;10.38;;;3.70;;
75680;SDS011;64294;49.176;16.626;2023-05-09T11:44:53;7.20;;;3.42;;
75680;SDS011;64294;49.176;16.626;2023-05-09T11:47:20;8.38;;;3.30;;
75680;SDS011;64294;49.176;16.626;2023-05-09T11:49:47;15.70;;;4.10;;
75680;SDS011;64294;49.176;16.626;2023-05-09T11:52:13;12.00;;;3.50;;
75680;SDS011;64294;49.176;16.626;2023-05-09T11:54:38;18.17;;;3.83;;
75680;SDS011;64294;49.176;16.626;2023-05-09T11:57:04;6.85;;;3.17;;
75680;SDS011;64294;49.176;16.626;2023-05-09T11:59:32;5.13;;;3.05;;
75680;SDS011;64294;49.176;16.626;2023-05-09T12:02:04;5.10;;;2.90;;
75680;SDS011;64294;49.176;16.626;2023-05-09T12:04:31;5.97;;;3.00;;
75680;SDS011;64294;49.176;16.626;2023-05-09T12:06:57;5.75;;;3.28;;
75680;SDS011;64294;49.176;16.626;2023-05-09T12:09:23;5.93;;;3.10;;
75680;SDS011;64294;49.176;16.626;2023-05-09T12:11:51;3.30;;;2.75;;
75680;SDS011;64294;49.176;16.626;2023-05-09T12:14:29;4.38;;;2.90;;
75680;SDS011;64294;49.176;16.626;2023-05-09T12:16:56;7.45;;;3.05;;
75680;SDS011;64294;49.176;16.626;2023-05-09T12:19:23;5.35;;;3.03;;
75680;SDS011;64294;49.176;16.626;2023-05-09T12:21:53;5.93;;;3.10;;
75680;SDS011;64294;49.176;16.626;2023-05-09T12:24:23;6.25;;;3.10;;
75680;SDS011;64294;49.176;16.626;2023-05-09T12:26:50;9.57;;;3.47;;
75680;SDS011;64294;49.176;16.626;2023-05-09T12:29:17;6.25;;;3.13;;
75680;SDS011;64294;49.176;16.626;2023-05-09T12:31:43;4.38;;;2.95;;
75680;SDS011;64294;49.176;16.626;2023-05-09T12:34:08;4.57;;;2.83;;
75680;SDS011;64294;49.176;16.626;2023-05-09T12:36:34;5.07;;;2.92;;
75680;SDS011;64294;49.176;16.626;2023-05-09T12:39:01;6.35;;;3.33;;
75680;SDS011;64294;49.176;16.626;2023-05-09T12:41:31;6.72;;;3.15;;
75680;SDS011;64294;49.176;16.626;2023-05-09T12:43:57;6.43;;;3.20;;
75680;SDS011;64294;49.176;16.626;2023-05-09T12:46:22;5.10;;;2.80;;
75680;SDS011;64294;49.176;16.626;2023-05-09T12:48:48;6.22;;;3.20;;
75680;SDS011;64294;49.176;16.626;2023-05-09T12:51:20;8.07;;;3.00;;
75680;SDS011;64294;49.176;16.626;2023-05-09T12:53:45;8.30;;;3.30;;
75680;SDS011;64294;49.176;16.626;2023-05-09T12:56:18;12.05;;;3.65;;
75680;SDS011;64294;49.176;16.626;2023-05-09T12:58:47;7.03;;;3.00;;
75680;SDS011;64294;49.176;16.626;2023-05-09T13:01:14;4.38;;;2.70;;
75680;SDS011;64294;49.176;16.626;2023-05-09T13:03:39;15.68;;;2.88;;
75680;SDS011;64294;49.176;16.626;2023-05-09T13:06:10;5.90;;;2.80;;
75680;SDS011;64294;49.176;16.626;2023-05-09T13:08:37;5.45;;;3.00;;
75680;SDS011;64294;49.176;16.626;2023-05-09T13:11:03;22.60;;;4.25;;
75680;SDS011;64294;49.176;16.626;2023-05-09T13:13:29;5.75;;;2.92;;
75680;SDS011;64294;49.176;16.626;2023-05-09T13:15:55;4.95;;;3.13;;
75680;SDS011;64294;49.176;16.626;2023-05-09T13:18:21;5.90;;;2.92;;
75680;SDS011;64294;49.176;16.626;2023-05-09T13:20:48;4.40;;;3.03;;
75680;SDS011;64294;49.176;16.626;2023-05-09T13:23:16;4.45;;;2.60;;
75680;SDS011;64294;49.176;16.626;2023-05-09T13:25:42;7.03;;;2.90;;
75680;SDS011;64294;49.176;16.626;2023-05-09T13:28:08;4.05;;;2.85;;
75680;SDS011;64294;49.176;16.626;2023-05-09T13:30:33;3.67;;;2.65;;
75680;SDS011;64294;49.176;16.626;2023-05-09T13:32:59;4.32;;;2.80;;
75680;SDS011;64294;49.176;16.626;2023-05-09T13:35:24;7.47;;;3.05;;
75680;SDS011;64294;49.176;16.626;2023-05-09T13:37:50;4.32;;;2.80;;
75680;SDS011;64294;49.176;16.626;2023-05-09T13:40:15;4.55;;;2.90;;
75680;SDS011;64294;49.176;16.626;2023-05-09T13:42:41;4.28;;;2.70;;
75680;SDS011;64294;49.176;16.626;2023-05-09T13:45:06;5.28;;;2.72;;
75680;SDS011;64294;49.176;16.626;2023-05-09T13:47:32;10.75;;;4.15;;
75680;SDS011;64294;49.176;16.626;2023-05-09T13:49:58;4.90;;;2.72;;
75680;SDS011;64294;49.176;16.626;2023-05-09T13:52:23;4.40;;;2.92;;
75680;SDS011;64294;49.176;16.626;2023-05-09T13:54:49;5.93;;;2.95;;
75680;SDS011;64294;49.176;16.626;2023-05-09T13:57:14;5.43;;;2.85;;
75680;SDS011;64294;49.176;16.626;2023-05-09T13:59:40;4.38;;;2.95;;
75680;SDS011;64294;49.176;16.626;2023-05-09T14:02:06;6.90;;;2.65;;
75680;SDS011;64294;49.176;16.626;2023-05-09T14:04:32;5.82;;;2.85;;
75680;SDS011;64294;49.176;16.626;2023-05-09T14:06:58;6.15;;;2.78;;
75680;SDS011;64294;49.176;16.626;2023-05-09T14:09:25;5.03;;;2.90;;
75680;SDS011;64294;49.176;16.626;2023-05-09T14:11:51;5.75;;;3.00;;
75680;SDS011;64294;49.176;16.626;2023-05-09T14:14:17;4.38;;;2.60;;
75680;SDS011;64294;49.176;16.626;2023-05-09T14:16:44;4.97;;;2.80;;
75680;SDS011;64294;49.176;16.626;2023-05-09T14:19:10;6.18;;;3.22;;
75680;SDS011;64294;49.176;16.626;2023-05-09T14:21:36;6.05;;;2.83;;
75680;SDS011;64294;49.176;16.626;2023-05-09T14:24:02;4.18;;;2.65;;
75680;SDS011;64294;49.176;16.626;2023-05-09T14:26:27;4.32;;;2.67;;
75680;SDS011;64294;49.176;16.626;2023-05-09T14:28:53;6.45;;;2.65;;
75680;SDS011;64294;49.176;16.626;2023-05-09T14:31:18;6.68;;;2.55;;
75680;SDS011;64294;49.176;16.626;2023-05-09T14:33:44;3.17;;;2.35;;
75680;SDS011;64294;49.176;16.626;2023-05-09T14:36:09;3.90;;;2.63;;
75680;SDS011;64294;49.176;16.626;2023-05-09T14:38:35;6.13;;;2.70;;
75680;SDS011;64294;49.176;16.626;2023-05-09T14:41:01;4.78;;;2.72;;
75680;SDS011;64294;49.176;16.626;2023-05-09T14:43:27;4.90;;;2.30;;
75680;SDS011;64294;49.176;16.626;2023-05-09T14:45:53;3.17;;;2.30;;
75680;SDS011;64294;49.176;16.626;2023-05-09T14:48:19;3.90;;;2.35;;
75680;SDS011;64294;49.176;16.626;2023-05-09T14:50:44;3.00;;;2.30;;
75680;SDS011;64294;49.176;16.626;2023-05-09T14:53:10;3.75;;;2.50;;
75680;SDS011;64294;49.176;16.626;2023-05-09T14:55:36;6.63;;;2.60;;